sensor_id;sensor_type;location;lat;lon;timestamp;P1;durP1;ratioP1;P2;durP2;ratioP2
5343;SDS011;2694;48.954;8.928;2024-03-23T00:53:41;9.30;;;5.50;;
5343;SDS011;2694;48.954;8.928;2024-03-23T00:56:09;11.05;;;5.80;;
5343;SDS011;2694;48.954;8.928;2024-03-23T00:58:34;12.05;;;5.35;;
5343;SDS011;2694;48.954;8.928;2024-03-23T01:01:01;11.45;;;5.60;;
5343;SDS011;2694;48.954;8.928;2024-03-23T01:03:28;16.85;;;5.95;;
5343;SDS011;2694;48.954;8.928;2024-03-23T01:05:58;11.85;;;5.93;;
5343;SDS011;2694;48.954;8.928;2024-03-23T01:08:24;12.80;;;6.70;;
5343;SDS011;2694;48.954;8.928;2024-03-23T01:10:56;11.75;;;6.18;;
5343;SDS011;2694;48.954;8.928;2024-03-23T01:13:22;10.63;;;5.10;;
5343;SDS011;2694;48.954;8.928;2024-03-23T01:15:49;10.57;;;5.00;;
5343;SDS011;2694;48.954;8.928;2024-03-23T01:18:15;9.67;;;5.63;;
5343;SDS011;2694;48.954;8.928;2024-03-23T01:20:41;12.37;;;5.23;;
5343;SDS011;2694;48.954;8.928;2024-03-23T01:23:07;10.10;;;4.88;;
5343;SDS011;2694;48.954;8.928;2024-03-23T01:25:34;12.73;;;5.20;;
5343;SDS011;2694;48.954;8.928;2024-03-23T01:28:01;9.07;;;4.53;;
5343;SDS011;2694;48.954;8.928;2024-03-23T01:30:28;9.60;;;5.40;;
5343;SDS011;2694;48.954;8.928;2024-03-23T01:32:54;11.65;;;5.25;;
5343;SDS011;2694;48.954;8.928;2024-03-23T01:35:21;12.90;;;5.60;;
5343;SDS011;2694;48.954;8.928;2024-03-23T01:37:46;12.00;;;4.80;;
5343;SDS011;2694;48.954;8.928;2024-03-23T01:40:13;8.90;;;5.40;;
5343;SDS011;2694;48.954;8.928;2024-03-23T01:42:41;10.77;;;5.60;;
5343;SDS011;2694;48.954;8.928;2024-03-23T01:45:09;8.80;;;4.60;;
5343;SDS011;2694;48.954;8.928;2024-03-23T01:47:35;12.73;;;5.78;;
5343;SDS011;2694;48.954;8.928;2024-03-23T01:50:02;9.07;;;5.50;;
5343;SDS011;2694;48.954;8.928;2024-03-23T01:52:28;13.63;;;5.90;;
5343;SDS011;2694;48.954;8.928;2024-03-23T01:54:55;9.85;;;4.95;;
5343;SDS011;2694;48.954;8.928;2024-03-23T01:57:21;7.90;;;5.30;;
5343;SDS011;2694;48.954;8.928;2024-03-23T01:59:48;9.05;;;5.20;;
5343;SDS011;2694;48.954;8.928;2024-03-23T02:02:15;8.07;;;4.57;;
5343;SDS011;2694;48.954;8.928;2024-03-23T02:04:45;7.20;;;4.10;;
5343;SDS011;2694;48.954;8.928;2024-03-23T02:07:10;9.05;;;4.60;;
5343;SDS011;2694;48.954;8.928;2024-03-23T02:09:37;8.85;;;5.05;;
5343;SDS011;2694;48.954;8.928;2024-03-23T02:12:03;11.87;;;4.83;;
5343;SDS011;2694;48.954;8.928;2024-03-23T02:14:31;8.75;;;4.70;;
5343;SDS011;2694;48.954;8.928;2024-03-23T02:16:57;9.77;;;5.00;;
5343;SDS011;2694;48.954;8.928;2024-03-23T02:19:25;11.85;;;5.90;;
5343;SDS011;2694;48.954;8.928;2024-03-23T02:21:51;15.48;;;6.20;;
5343;SDS011;2694;48.954;8.928;2024-03-23T02:24:19;11.02;;;6.07;;
5343;SDS011;2694;48.954;8.928;2024-03-23T02:26:45;9.43;;;5.20;;
5343;SDS011;2694;48.954;8.928;2024-03-23T02:29:13;9.32;;;5.00;;
5343;SDS011;2694;48.954;8.928;2024-03-23T02:31:39;10.18;;;5.88;;
5343;SDS011;2694;48.954;8.928;2024-03-23T02:34:06;9.07;;;5.10;;
5343;SDS011;2694;48.954;8.928;2024-03-23T02:36:32;12.73;;;6.20;;
5343;SDS011;2694;48.954;8.928;2024-03-23T02:38:59;10.53;;;5.80;;
5343;SDS011;2694;48.954;8.928;2024-03-23T02:41:26;13.30;;;6.30;;
5343;SDS011;2694;48.954;8.928;2024-03-23T02:43:52;12.35;;;7.07;;
5343;SDS011;2694;48.954;8.928;2024-03-23T02:46:18;10.93;;;6.30;;
5343;SDS011;2694;48.954;8.928;2024-03-23T02:48:45;15.80;;;6.40;;
5343;SDS011;2694;48.954;8.928;2024-03-23T02:51:13;10.35;;;5.97;;
5343;SDS011;2694;48.954;8.928;2024-03-23T02:53:40;9.38;;;5.72;;
5343;SDS011;2694;48.954;8.928;2024-03-23T02:56:06;12.05;;;6.05;;
5343;SDS011;2694;48.954;8.928;2024-03-23T02:58:34;11.55;;;6.20;;
5343;SDS011;2694;48.954;8.928;2024-03-23T03:01:00;11.85;;;5.90;;
5343;SDS011;2694;48.954;8.928;2024-03-23T03:03:27;10.68;;;6.05;;
5343;SDS011;2694;48.954;8.928;2024-03-23T03:05:54;10.63;;;5.45;;
5343;SDS011;2694;48.954;8.928;2024-03-23T03:08:21;10.40;;;4.93;;
5343;SDS011;2694;48.954;8.928;2024-03-23T03:10:47;10.43;;;4.83;;
5343;SDS011;2694;48.954;8.928;2024-03-23T03:13:14;11.47;;;5.60;;
5343;SDS011;2694;48.954;8.928;2024-03-23T03:15:41;9.02;;;5.13;;
5343;SDS011;2694;48.954;8.928;2024-03-23T03:18:09;11.00;;;6.10;;
5343;SDS011;2694;48.954;8.928;2024-03-23T03:20:36;9.73;;;5.30;;
5343;SDS011;2694;48.954;8.928;2024-03-23T03:23:04;9.52;;;5.85;;
5343;SDS011;2694;48.954;8.928;2024-03-23T03:25:30;11.60;;;5.60;;
5343;SDS011;2694;48.954;8.928;2024-03-23T03:27:57;9.02;;;5.20;;
5343;SDS011;2694;48.954;8.928;2024-03-23T03:30:22;8.70;;;5.25;;
5343;SDS011;2694;48.954;8.928;2024-03-23T03:32:51;8.90;;;5.30;;
5343;SDS011;2694;48.954;8.928;2024-03-23T03:35:18;8.90;;;5.30;;
5343;SDS011;2694;48.954;8.928;2024-03-23T03:37:45;8.93;;;4.80;;
5343;SDS011;2694;48.954;8.928;2024-03-23T03:40:11;9.27;;;4.93;;
5343;SDS011;2694;48.954;8.928;2024-03-23T03:42:40;7.38;;;4.65;;
5343;SDS011;2694;48.954;8.928;2024-03-23T03:45:06;6.63;;;4.35;;
5343;SDS011;2694;48.954;8.928;2024-03-23T03:47:33;8.70;;;4.40;;
5343;SDS011;2694;48.954;8.928;2024-03-23T03:50:00;8.20;;;4.90;;
5343;SDS011;2694;48.954;8.928;2024-03-23T03:52:27;11.23;;;5.20;;
5343;SDS011;2694;48.954;8.928;2024-03-23T03:54:55;7.73;;;4.97;;
5343;SDS011;2694;48.954;8.928;2024-03-23T03:57:28;8.88;;;4.70;;
5343;SDS011;2694;48.954;8.928;2024-03-23T03:59:54;9.17;;;5.03;;
5343;SDS011;2694;48.954;8.928;2024-03-23T04:02:20;10.33;;;5.60;;
5343;SDS011;2694;48.954;8.928;2024-03-23T04:04:46;10.05;;;5.70;;
5343;SDS011;2694;48.954;8.928;2024-03-23T04:07:14;13.27;;;5.65;;
5343;SDS011;2694;48.954;8.928;2024-03-23T04:09:40;12.90;;;7.43;;
5343;SDS011;2694;48.954;8.928;2024-03-23T04:12:07;13.77;;;6.25;;
5343;SDS011;2694;48.954;8.928;2024-03-23T04:14:32;11.67;;;6.50;;
5343;SDS011;2694;48.954;8.928;2024-03-23T04:16:59;13.47;;;7.23;;
5343;SDS011;2694;48.954;8.928;2024-03-23T04:19:25;16.15;;;8.55;;
5343;SDS011;2694;48.954;8.928;2024-03-23T04:21:52;16.80;;;8.30;;
5343;SDS011;2694;48.954;8.928;2024-03-23T04:24:19;15.00;;;8.10;;
5343;SDS011;2694;48.954;8.928;2024-03-23T04:26:47;16.70;;;9.20;;
5343;SDS011;2694;48.954;8.928;2024-03-23T04:29:13;17.48;;;8.75;;
5343;SDS011;2694;48.954;8.928;2024-03-23T04:31:40;18.50;;;8.77;;
5343;SDS011;2694;48.954;8.928;2024-03-23T04:34:05;15.50;;;8.70;;
5343;SDS011;2694;48.954;8.928;2024-03-23T04:36:32;17.17;;;8.43;;
5343;SDS011;2694;48.954;8.928;2024-03-23T04:38:59;16.87;;;8.43;;
5343;SDS011;2694;48.954;8.928;2024-03-23T04:41:28;15.52;;;8.23;;
5343;SDS011;2694;48.954;8.928;2024-03-23T04:43:55;16.52;;;8.15;;
5343;SDS011;2694;48.954;8.928;2024-03-23T04:46:21;15.82;;;8.90;;
5343;SDS011;2694;48.954;8.928;2024-03-23T04:48:48;19.73;;;8.90;;
5343;SDS011;2694;48.954;8.928;2024-03-23T04:51:20;15.13;;;9.10;;
5343;SDS011;2694;48.954;8.928;2024-03-23T04:53:47;14.73;;;8.15;;
5343;SDS011;2694;48.954;8.928;2024-03-23T04:56:14;16.90;;;9.02;;
5343;SDS011;2694;48.954;8.928;2024-03-23T04:58:42;16.13;;;9.40;;
5343;SDS011;2694;48.954;8.928;2024-03-23T05:01:08;20.42;;;10.40;;
5343;SDS011;2694;48.954;8.928;2024-03-23T05:03:35;22.73;;;10.48;;
5343;SDS011;2694;48.954;8.928;2024-03-23T05:06:01;19.08;;;10.35;;
5343;SDS011;2694;48.954;8.928;2024-03-23T05:08:28;17.20;;;9.80;;
5343;SDS011;2694;48.954;8.928;2024-03-23T05:10:54;25.45;;;10.60;;
5343;SDS011;2694;48.954;8.928;2024-03-23T05:13:20;24.98;;;11.10;;
5343;SDS011;2694;48.954;8.928;2024-03-23T05:15:51;18.87;;;10.50;;
5343;SDS011;2694;48.954;8.928;2024-03-23T05:18:19;20.35;;;9.98;;
5343;SDS011;2694;48.954;8.928;2024-03-23T05:20:44;22.33;;;10.53;;
5343;SDS011;2694;48.954;8.928;2024-03-23T05:23:11;20.45;;;10.15;;
5343;SDS011;2694;48.954;8.928;2024-03-23T05:25:37;24.20;;;11.47;;
5343;SDS011;2694;48.954;8.928;2024-03-23T05:28:04;22.70;;;10.63;;
5343;SDS011;2694;48.954;8.928;2024-03-23T05:30:30;19.27;;;9.73;;
5343;SDS011;2694;48.954;8.928;2024-03-23T05:32:58;22.03;;;9.97;;
5343;SDS011;2694;48.954;8.928;2024-03-23T05:35:24;23.90;;;10.43;;
5343;SDS011;2694;48.954;8.928;2024-03-23T05:37:51;18.45;;;10.23;;
5343;SDS011;2694;48.954;8.928;2024-03-23T05:40:16;17.47;;;9.50;;
5343;SDS011;2694;48.954;8.928;2024-03-23T05:42:43;16.85;;;9.00;;
5343;SDS011;2694;48.954;8.928;2024-03-23T05:45:09;15.00;;;8.73;;
5343;SDS011;2694;48.954;8.928;2024-03-23T05:47:36;14.45;;;7.63;;
5343;SDS011;2694;48.954;8.928;2024-03-23T05:50:05;15.00;;;7.80;;
5343;SDS011;2694;48.954;8.928;2024-03-23T05:52:32;14.25;;;7.20;;
5343;SDS011;2694;48.954;8.928;2024-03-23T05:54:57;13.27;;;6.37;;
5343;SDS011;2694;48.954;8.928;2024-03-23T05:57:24;11.05;;;5.72;;
5343;SDS011;2694;48.954;8.928;2024-03-23T05:59:50;11.85;;;4.70;;
5343;SDS011;2694;48.954;8.928;2024-03-23T06:02:17;8.83;;;4.50;;
5343;SDS011;2694;48.954;8.928;2024-03-23T06:04:44;10.30;;;4.43;;
5343;SDS011;2694;48.954;8.928;2024-03-23T06:07:13;8.38;;;3.92;;
5343;SDS011;2694;48.954;8.928;2024-03-23T06:09:39;8.10;;;3.88;;
5343;SDS011;2694;48.954;8.928;2024-03-23T06:12:06;7.20;;;3.50;;
5343;SDS011;2694;48.954;8.928;2024-03-23T06:14:33;6.35;;;3.40;;
5343;SDS011;2694;48.954;8.928;2024-03-23T06:16:59;9.50;;;4.00;;
5343;SDS011;2694;48.954;8.928;2024-03-23T06:19:26;6.72;;;2.90;;
5343;SDS011;2694;48.954;8.928;2024-03-23T06:21:52;5.90;;;2.42;;
5343;SDS011;2694;48.954;8.928;2024-03-23T06:24:21;5.00;;;2.10;;
5343;SDS011;2694;48.954;8.928;2024-03-23T06:26:47;5.00;;;1.88;;
5343;SDS011;2694;48.954;8.928;2024-03-23T06:29:13;2.85;;;1.70;;
5343;SDS011;2694;48.954;8.928;2024-03-23T06:31:39;2.50;;;1.30;;
5343;SDS011;2694;48.954;8.928;2024-03-23T06:34:06;2.17;;;0.70;;
5343;SDS011;2694;48.954;8.928;2024-03-23T06:36:32;3.30;;;1.73;;
5343;SDS011;2694;48.954;8.928;2024-03-23T06:38:58;2.70;;;0.80;;
5343;SDS011;2694;48.954;8.928;2024-03-23T06:41:26;1.67;;;0.80;;
5343;SDS011;2694;48.954;8.928;2024-03-23T06:43:53;1.30;;;0.80;;
5343;SDS011;2694;48.954;8.928;2024-03-23T06:46:18;1.45;;;0.90;;
5343;SDS011;2694;48.954;8.928;2024-03-23T06:48:45;1.75;;;0.68;;
5343;SDS011;2694;48.954;8.928;2024-03-23T06:51:11;3.08;;;1.13;;
5343;SDS011;2694;48.954;8.928;2024-03-23T06:53:38;1.88;;;0.70;;
5343;SDS011;2694;48.954;8.928;2024-03-23T06:56:03;2.13;;;1.00;;
5343;SDS011;2694;48.954;8.928;2024-03-23T06:58:32;1.70;;;0.77;;
5343;SDS011;2694;48.954;8.928;2024-03-23T07:00:58;1.67;;;0.70;;
5343;SDS011;2694;48.954;8.928;2024-03-23T07:03:24;1.60;;;0.70;;
5343;SDS011;2694;48.954;8.928;2024-03-23T07:05:51;1.40;;;0.70;;
5343;SDS011;2694;48.954;8.928;2024-03-23T07:08:17;1.75;;;0.70;;
5343;SDS011;2694;48.954;8.928;2024-03-23T07:10:47;1.55;;;0.65;;
5343;SDS011;2694;48.954;8.928;2024-03-23T07:13:13;1.35;;;0.70;;
5343;SDS011;2694;48.954;8.928;2024-03-23T07:15:41;1.70;;;0.50;;
5343;SDS011;2694;48.954;8.928;2024-03-23T07:18:07;2.20;;;0.70;;
5343;SDS011;2694;48.954;8.928;2024-03-23T07:20:33;1.67;;;0.80;;
5343;SDS011;2694;48.954;8.928;2024-03-23T07:23:00;1.70;;;0.63;;
5343;SDS011;2694;48.954;8.928;2024-03-23T07:25:25;1.45;;;0.70;;
5343;SDS011;2694;48.954;8.928;2024-03-23T07:27:54;2.38;;;1.00;;
5343;SDS011;2694;48.954;8.928;2024-03-23T07:30:19;1.65;;;0.80;;
5343;SDS011;2694;48.954;8.928;2024-03-23T07:32:48;2.15;;;1.20;;
5343;SDS011;2694;48.954;8.928;2024-03-23T07:35:13;2.90;;;0.80;;
5343;SDS011;2694;48.954;8.928;2024-03-23T07:37:40;1.30;;;0.50;;
5343;SDS011;2694;48.954;8.928;2024-03-23T07:40:07;2.00;;;0.60;;
5343;SDS011;2694;48.954;8.928;2024-03-23T07:42:34;1.10;;;0.50;;
5343;SDS011;2694;48.954;8.928;2024-03-23T07:45:00;1.30;;;0.65;;
5343;SDS011;2694;48.954;8.928;2024-03-23T07:47:27;0.77;;;0.45;;
5343;SDS011;2694;48.954;8.928;2024-03-23T07:49:54;0.80;;;0.32;;
5343;SDS011;2694;48.954;8.928;2024-03-23T07:52:22;1.00;;;0.30;;
5343;SDS011;2694;48.954;8.928;2024-03-23T07:54:48;2.10;;;0.40;;
5343;SDS011;2694;48.954;8.928;2024-03-23T07:57:15;0.80;;;0.40;;
5343;SDS011;2694;48.954;8.928;2024-03-23T07:59:40;3.60;;;0.30;;
5343;SDS011;2694;48.954;8.928;2024-03-23T08:02:07;1.70;;;0.50;;
5343;SDS011;2694;48.954;8.928;2024-03-23T08:04:37;0.90;;;0.33;;
5343;SDS011;2694;48.954;8.928;2024-03-23T08:07:05;1.20;;;0.40;;
5343;SDS011;2694;48.954;8.928;2024-03-23T08:09:31;1.00;;;0.50;;
5343;SDS011;2694;48.954;8.928;2024-03-23T08:11:57;0.80;;;0.43;;
5343;SDS011;2694;48.954;8.928;2024-03-23T08:14:23;0.70;;;0.40;;
5343;SDS011;2694;48.954;8.928;2024-03-23T08:16:50;1.00;;;0.40;;
5343;SDS011;2694;48.954;8.928;2024-03-23T08:19:16;2.30;;;0.50;;
5343;SDS011;2694;48.954;8.928;2024-03-23T08:21:43;1.20;;;0.40;;
5343;SDS011;2694;48.954;8.928;2024-03-23T08:24:10;2.70;;;0.80;;
5343;SDS011;2694;48.954;8.928;2024-03-23T08:26:36;0.90;;;0.40;;
5343;SDS011;2694;48.954;8.928;2024-03-23T08:29:02;1.00;;;0.40;;
5343;SDS011;2694;48.954;8.928;2024-03-23T08:31:29;1.35;;;0.30;;
5343;SDS011;2694;48.954;8.928;2024-03-23T08:33:55;1.38;;;0.50;;
5343;SDS011;2694;48.954;8.928;2024-03-23T08:36:22;2.30;;;0.60;;
5343;SDS011;2694;48.954;8.928;2024-03-23T08:38:49;2.30;;;0.40;;
5343;SDS011;2694;48.954;8.928;2024-03-23T08:41:20;3.40;;;0.63;;
5343;SDS011;2694;48.954;8.928;2024-03-23T08:43:45;3.22;;;0.70;;
5343;SDS011;2694;48.954;8.928;2024-03-23T08:46:12;3.40;;;0.80;;
5343;SDS011;2694;48.954;8.928;2024-03-23T08:48:40;2.33;;;1.00;;
5343;SDS011;2694;48.954;8.928;2024-03-23T08:51:09;5.40;;;1.13;;
5343;SDS011;2694;48.954;8.928;2024-03-23T08:53:37;5.47;;;1.10;;
5343;SDS011;2694;48.954;8.928;2024-03-23T08:56:04;8.05;;;1.15;;
5343;SDS011;2694;48.954;8.928;2024-03-23T08:58:33;4.85;;;1.10;;
5343;SDS011;2694;48.954;8.928;2024-03-23T09:01:02;7.03;;;1.38;;
5343;SDS011;2694;48.954;8.928;2024-03-23T09:03:31;3.55;;;1.27;;
5343;SDS011;2694;48.954;8.928;2024-03-23T09:05:57;8.50;;;2.00;;
5343;SDS011;2694;48.954;8.928;2024-03-23T09:08:24;6.60;;;1.70;;
5343;SDS011;2694;48.954;8.928;2024-03-23T09:10:52;4.07;;;1.73;;
5343;SDS011;2694;48.954;8.928;2024-03-23T09:13:19;7.90;;;2.08;;
5343;SDS011;2694;48.954;8.928;2024-03-23T09:15:47;8.40;;;2.05;;
5343;SDS011;2694;48.954;8.928;2024-03-23T09:18:14;8.95;;;1.90;;
5343;SDS011;2694;48.954;8.928;2024-03-23T09:20:40;12.07;;;2.40;;
5343;SDS011;2694;48.954;8.928;2024-03-23T09:23:07;9.87;;;1.90;;
5343;SDS011;2694;48.954;8.928;2024-03-23T09:25:35;7.65;;;1.90;;
5343;SDS011;2694;48.954;8.928;2024-03-23T09:28:03;7.35;;;1.90;;
5343;SDS011;2694;48.954;8.928;2024-03-23T09:30:29;8.27;;;2.13;;
5343;SDS011;2694;48.954;8.928;2024-03-23T09:32:57;6.78;;;2.35;;
5343;SDS011;2694;48.954;8.928;2024-03-23T09:35:22;4.53;;;1.80;;
5343;SDS011;2694;48.954;8.928;2024-03-23T09:37:49;5.22;;;2.20;;
5343;SDS011;2694;48.954;8.928;2024-03-23T09:40:15;7.10;;;2.30;;
5343;SDS011;2694;48.954;8.928;2024-03-23T09:42:42;7.72;;;2.50;;
5343;SDS011;2694;48.954;8.928;2024-03-23T09:45:17;7.35;;;2.10;;
5343;SDS011;2694;48.954;8.928;2024-03-23T09:47:46;7.65;;;2.20;;
5343;SDS011;2694;48.954;8.928;2024-03-23T09:50:13;9.63;;;2.08;;
5343;SDS011;2694;48.954;8.928;2024-03-23T09:52:40;10.93;;;2.20;;
5343;SDS011;2694;48.954;8.928;2024-03-23T09:55:06;7.00;;;2.00;;
5343;SDS011;2694;48.954;8.928;2024-03-23T09:57:34;9.20;;;2.20;;
5343;SDS011;2694;48.954;8.928;2024-03-23T10:00:00;8.60;;;2.30;;
5343;SDS011;2694;48.954;8.928;2024-03-23T10:02:27;5.13;;;2.27;;
5343;SDS011;2694;48.954;8.928;2024-03-23T10:04:53;8.13;;;1.90;;
5343;SDS011;2694;48.954;8.928;2024-03-23T10:07:21;8.55;;;1.90;;
5343;SDS011;2694;48.954;8.928;2024-03-23T10:09:47;7.15;;;2.30;;
5343;SDS011;2694;48.954;8.928;2024-03-23T10:12:17;5.68;;;1.80;;
5343;SDS011;2694;48.954;8.928;2024-03-23T10:14:43;6.18;;;1.80;;
5343;SDS011;2694;48.954;8.928;2024-03-23T10:17:12;6.45;;;1.70;;
5343;SDS011;2694;48.954;8.928;2024-03-23T10:19:42;6.07;;;1.98;;
5343;SDS011;2694;48.954;8.928;2024-03-23T10:22:13;7.53;;;2.10;;
5343;SDS011;2694;48.954;8.928;2024-03-23T10:24:41;6.53;;;2.00;;
5343;SDS011;2694;48.954;8.928;2024-03-23T10:27:08;5.47;;;2.10;;
5343;SDS011;2694;48.954;8.928;2024-03-23T10:29:34;6.32;;;1.60;;
5343;SDS011;2694;48.954;8.928;2024-03-23T10:32:07;6.55;;;2.22;;
5343;SDS011;2694;48.954;8.928;2024-03-23T10:34:33;11.48;;;2.30;;
5343;SDS011;2694;48.954;8.928;2024-03-23T10:37:01;9.13;;;2.23;;
5343;SDS011;2694;48.954;8.928;2024-03-23T10:39:29;8.68;;;2.90;;
5343;SDS011;2694;48.954;8.928;2024-03-23T10:41:59;11.57;;;2.40;;
5343;SDS011;2694;48.954;8.928;2024-03-23T10:44:27;7.90;;;2.70;;
5343;SDS011;2694;48.954;8.928;2024-03-23T10:46:55;11.93;;;2.45;;
5343;SDS011;2694;48.954;8.928;2024-03-23T10:49:25;9.52;;;2.78;;
5343;SDS011;2694;48.954;8.928;2024-03-23T10:51:54;8.00;;;3.33;;
5343;SDS011;2694;48.954;8.928;2024-03-23T10:54:21;9.55;;;3.42;;
5343;SDS011;2694;48.954;8.928;2024-03-23T10:56:50;8.30;;;3.50;;
5343;SDS011;2694;48.954;8.928;2024-03-23T10:59:21;7.20;;;3.50;;
5343;SDS011;2694;48.954;8.928;2024-03-23T11:01:55;9.05;;;3.28;;
5343;SDS011;2694;48.954;8.928;2024-03-23T11:04:31;11.13;;;3.05;;
5343;SDS011;2694;48.954;8.928;2024-03-23T11:06:59;7.68;;;3.05;;
5343;SDS011;2694;48.954;8.928;2024-03-23T11:09:41;10.50;;;3.07;;
5343;SDS011;2694;48.954;8.928;2024-03-23T11:12:26;6.90;;;2.85;;
5343;SDS011;2694;48.954;8.928;2024-03-23T11:14:59;10.75;;;3.20;;
5343;SDS011;2694;48.954;8.928;2024-03-23T11:17:28;7.43;;;3.17;;
5343;SDS011;2694;48.954;8.928;2024-03-23T11:19:54;13.20;;;4.93;;
5343;SDS011;2694;48.954;8.928;2024-03-23T11:22:39;10.27;;;3.70;;
5343;SDS011;2694;48.954;8.928;2024-03-23T11:25:15;14.15;;;3.80;;
5343;SDS011;2694;48.954;8.928;2024-03-23T11:27:43;8.60;;;3.30;;
5343;SDS011;2694;48.954;8.928;2024-03-23T11:30:14;11.63;;;3.92;;
5343;SDS011;2694;48.954;8.928;2024-03-23T11:32:43;7.80;;;2.90;;
5343;SDS011;2694;48.954;8.928;2024-03-23T11:35:09;6.03;;;2.63;;
5343;SDS011;2694;48.954;8.928;2024-03-23T11:37:37;8.38;;;2.78;;
5343;SDS011;2694;48.954;8.928;2024-03-23T11:40:18;6.97;;;2.38;;
5343;SDS011;2694;48.954;8.928;2024-03-23T11:42:46;7.25;;;2.03;;
5343;SDS011;2694;48.954;8.928;2024-03-23T11:45:12;4.07;;;1.90;;
5343;SDS011;2694;48.954;8.928;2024-03-23T11:47:42;9.73;;;2.10;;
5343;SDS011;2694;48.954;8.928;2024-03-23T11:50:09;5.50;;;1.70;;
5343;SDS011;2694;48.954;8.928;2024-03-23T11:52:49;7.43;;;1.80;;
5343;SDS011;2694;48.954;8.928;2024-03-23T11:55:16;9.68;;;1.77;;
5343;SDS011;2694;48.954;8.928;2024-03-23T11:57:43;5.50;;;1.63;;
5343;SDS011;2694;48.954;8.928;2024-03-23T12:00:20;6.97;;;1.98;;
5343;SDS011;2694;48.954;8.928;2024-03-23T12:02:49;5.40;;;1.60;;
5343;SDS011;2694;48.954;8.928;2024-03-23T12:05:15;4.63;;;1.50;;
5343;SDS011;2694;48.954;8.928;2024-03-23T12:07:42;10.65;;;1.60;;
5343;SDS011;2694;48.954;8.928;2024-03-23T12:10:08;8.20;;;1.70;;
5343;SDS011;2694;48.954;8.928;2024-03-23T12:12:34;3.22;;;1.20;;
5343;SDS011;2694;48.954;8.928;2024-03-23T12:15:01;5.22;;;1.40;;
5343;SDS011;2694;48.954;8.928;2024-03-23T12:17:30;5.15;;;1.50;;
5343;SDS011;2694;48.954;8.928;2024-03-23T12:19:57;4.82;;;1.70;;
5343;SDS011;2694;48.954;8.928;2024-03-23T12:22:24;4.37;;;1.23;;
5343;SDS011;2694;48.954;8.928;2024-03-23T12:24:50;5.20;;;1.80;;
5343;SDS011;2694;48.954;8.928;2024-03-23T12:27:17;6.40;;;2.20;;
5343;SDS011;2694;48.954;8.928;2024-03-23T12:29:43;9.07;;;1.63;;
5343;SDS011;2694;48.954;8.928;2024-03-23T12:32:11;6.32;;;1.30;;
5343;SDS011;2694;48.954;8.928;2024-03-23T12:34:38;6.50;;;1.73;;
5343;SDS011;2694;48.954;8.928;2024-03-23T12:37:06;6.47;;;1.45;;
5343;SDS011;2694;48.954;8.928;2024-03-23T12:39:32;12.80;;;2.30;;
5343;SDS011;2694;48.954;8.928;2024-03-23T12:42:00;5.50;;;1.70;;
5343;SDS011;2694;48.954;8.928;2024-03-23T12:44:29;8.02;;;1.33;;
5343;SDS011;2694;48.954;8.928;2024-03-23T12:46:54;9.68;;;1.48;;
5343;SDS011;2694;48.954;8.928;2024-03-23T12:49:21;6.57;;;1.83;;
5343;SDS011;2694;48.954;8.928;2024-03-23T12:51:48;9.48;;;1.77;;
5343;SDS011;2694;48.954;8.928;2024-03-23T12:54:21;11.13;;;2.15;;
5343;SDS011;2694;48.954;8.928;2024-03-23T12:56:47;8.90;;;1.67;;
5343;SDS011;2694;48.954;8.928;2024-03-23T12:59:14;4.63;;;1.60;;
5343;SDS011;2694;48.954;8.928;2024-03-23T13:01:41;10.40;;;2.95;;
5343;SDS011;2694;48.954;8.928;2024-03-23T13:04:08;9.40;;;1.80;;
5343;SDS011;2694;48.954;8.928;2024-03-23T13:06:34;5.50;;;1.60;;
5343;SDS011;2694;48.954;8.928;2024-03-23T13:09:01;10.30;;;2.00;;
5343;SDS011;2694;48.954;8.928;2024-03-23T13:11:28;9.00;;;1.90;;
5343;SDS011;2694;48.954;8.928;2024-03-23T13:13:55;12.50;;;2.30;;
5343;SDS011;2694;48.954;8.928;2024-03-23T13:16:20;6.97;;;1.60;;
5343;SDS011;2694;48.954;8.928;2024-03-23T13:18:47;6.93;;;1.65;;
5343;SDS011;2694;48.954;8.928;2024-03-23T13:21:13;14.48;;;1.75;;
5343;SDS011;2694;48.954;8.928;2024-03-23T13:23:39;7.60;;;2.00;;
5343;SDS011;2694;48.954;8.928;2024-03-23T13:26:07;10.90;;;2.72;;
5343;SDS011;2694;48.954;8.928;2024-03-23T13:28:35;10.43;;;1.70;;
5343;SDS011;2694;48.954;8.928;2024-03-23T13:31:01;8.30;;;1.60;;
5343;SDS011;2694;48.954;8.928;2024-03-23T13:33:29;10.63;;;1.53;;
5343;SDS011;2694;48.954;8.928;2024-03-23T13:35:55;4.55;;;1.27;;
5343;SDS011;2694;48.954;8.928;2024-03-23T13:38:22;11.85;;;1.40;;
5343;SDS011;2694;48.954;8.928;2024-03-23T13:40:52;6.10;;;0.90;;
5343;SDS011;2694;48.954;8.928;2024-03-23T13:43:19;5.65;;;1.10;;
5343;SDS011;2694;48.954;8.928;2024-03-23T13:45:47;3.58;;;0.90;;
5343;SDS011;2694;48.954;8.928;2024-03-23T13:48:14;4.10;;;0.70;;
5343;SDS011;2694;48.954;8.928;2024-03-23T13:50:40;8.43;;;1.00;;
5343;SDS011;2694;48.954;8.928;2024-03-23T13:53:07;5.25;;;1.02;;
5343;SDS011;2694;48.954;8.928;2024-03-23T13:55:33;1.70;;;0.70;;
5343;SDS011;2694;48.954;8.928;2024-03-23T13:58:00;4.22;;;0.60;;
5343;SDS011;2694;48.954;8.928;2024-03-23T14:00:26;3.72;;;0.70;;
5343;SDS011;2694;48.954;8.928;2024-03-23T14:02:54;3.97;;;0.80;;
5343;SDS011;2694;48.954;8.928;2024-03-23T14:05:20;4.53;;;1.15;;
5343;SDS011;2694;48.954;8.928;2024-03-23T14:07:47;3.10;;;0.80;;
5343;SDS011;2694;48.954;8.928;2024-03-23T14:10:12;5.35;;;1.98;;
5343;SDS011;2694;48.954;8.928;2024-03-23T14:12:39;6.57;;;1.40;;
5343;SDS011;2694;48.954;8.928;2024-03-23T14:15:06;4.30;;;1.20;;
5343;SDS011;2694;48.954;8.928;2024-03-23T14:17:34;6.67;;;1.30;;
5343;SDS011;2694;48.954;8.928;2024-03-23T14:20:01;3.90;;;1.00;;
5343;SDS011;2694;48.954;8.928;2024-03-23T14:22:30;2.72;;;1.00;;
5343;SDS011;2694;48.954;8.928;2024-03-23T14:24:56;4.53;;;1.00;;
5343;SDS011;2694;48.954;8.928;2024-03-23T14:27:23;3.50;;;0.93;;
5343;SDS011;2694;48.954;8.928;2024-03-23T14:29:49;4.40;;;0.70;;
5343;SDS011;2694;48.954;8.928;2024-03-23T14:32:16;4.97;;;0.80;;
5343;SDS011;2694;48.954;8.928;2024-03-23T14:34:41;3.30;;;0.80;;
5343;SDS011;2694;48.954;8.928;2024-03-23T14:37:09;6.90;;;0.90;;
5343;SDS011;2694;48.954;8.928;2024-03-23T14:39:35;3.60;;;0.75;;
5343;SDS011;2694;48.954;8.928;2024-03-23T14:42:04;3.83;;;1.08;;
5343;SDS011;2694;48.954;8.928;2024-03-23T14:44:31;3.22;;;0.70;;
5343;SDS011;2694;48.954;8.928;2024-03-23T14:46:58;2.00;;;0.60;;
5343;SDS011;2694;48.954;8.928;2024-03-23T14:49:24;2.20;;;0.60;;
5343;SDS011;2694;48.954;8.928;2024-03-23T14:51:51;3.63;;;0.77;;
5343;SDS011;2694;48.954;8.928;2024-03-23T14:54:18;1.50;;;0.45;;
5343;SDS011;2694;48.954;8.928;2024-03-23T14:56:45;2.30;;;0.40;;
5343;SDS011;2694;48.954;8.928;2024-03-23T14:59:12;4.25;;;0.70;;
5343;SDS011;2694;48.954;8.928;2024-03-23T15:01:39;2.97;;;0.55;;
5343;SDS011;2694;48.954;8.928;2024-03-23T15:04:05;2.70;;;1.00;;
5343;SDS011;2694;48.954;8.928;2024-03-23T15:06:31;2.53;;;0.32;;
5343;SDS011;2694;48.954;8.928;2024-03-23T15:08:58;1.52;;;0.30;;
5343;SDS011;2694;48.954;8.928;2024-03-23T15:11:26;1.30;;;0.40;;
5343;SDS011;2694;48.954;8.928;2024-03-23T15:13:52;3.17;;;1.00;;
5343;SDS011;2694;48.954;8.928;2024-03-23T15:16:20;2.03;;;0.50;;
5343;SDS011;2694;48.954;8.928;2024-03-23T15:18:46;2.17;;;0.50;;
5343;SDS011;2694;48.954;8.928;2024-03-23T15:21:13;1.83;;;0.50;;
5343;SDS011;2694;48.954;8.928;2024-03-23T15:23:44;2.55;;;0.68;;
5343;SDS011;2694;48.954;8.928;2024-03-23T15:26:11;2.83;;;0.60;;
5343;SDS011;2694;48.954;8.928;2024-03-23T15:28:38;2.88;;;1.10;;
5343;SDS011;2694;48.954;8.928;2024-03-23T15:31:06;3.15;;;0.70;;
5343;SDS011;2694;48.954;8.928;2024-03-23T15:33:33;2.53;;;0.47;;
5343;SDS011;2694;48.954;8.928;2024-03-23T15:36:00;1.98;;;0.57;;
5343;SDS011;2694;48.954;8.928;2024-03-23T15:38:26;4.85;;;0.80;;
5343;SDS011;2694;48.954;8.928;2024-03-23T15:40:54;4.35;;;0.95;;
5343;SDS011;2694;48.954;8.928;2024-03-23T15:43:20;4.47;;;1.50;;
5343;SDS011;2694;48.954;8.928;2024-03-23T15:45:54;5.32;;;0.90;;
5343;SDS011;2694;48.954;8.928;2024-03-23T15:48:20;6.25;;;1.48;;
5343;SDS011;2694;48.954;8.928;2024-03-23T15:50:50;4.65;;;1.00;;
5343;SDS011;2694;48.954;8.928;2024-03-23T15:53:18;3.97;;;1.45;;
5343;SDS011;2694;48.954;8.928;2024-03-23T15:55:44;4.65;;;1.10;;
5343;SDS011;2694;48.954;8.928;2024-03-23T15:58:11;3.00;;;1.10;;
5343;SDS011;2694;48.954;8.928;2024-03-23T16:00:37;3.30;;;1.25;;
5343;SDS011;2694;48.954;8.928;2024-03-23T16:03:05;4.00;;;1.20;;